Time;durP1;ratioP1;P1;durP2;ratioP2;P2;SDS_P1;SDS_P2;PMS_P1;PMS_P2;Temp;Humidity;BMP_temperature;BMP_pressure;BME280_temperature;BME280_humidity;BME280_pressure;Samples;Min_cycle;Max_cycle;Signal;HPM_P1;HPM_P2
2021/12/28 00:00:26;;;;;;;19.63;14.55;;;8.10;99.90;;;;;;5014432;28;20113;-66
2021/12/28 00:02:52;;;;;;;25.45;17.08;;;8.10;99.90;;;;;;5014676;28;20427;-66
2021/12/28 00:05:20;;;;;;;20.60;14.35;;;8.10;99.90;;;;;;5013205;28;20111;-66
2021/12/28 00:07:46;;;;;;;22.35;14.43;;;8.10;99.90;;;;;;5015046;28;20037;-66
2021/12/28 00:10:14;;;;;;;18.40;13.55;;;8.10;99.90;;;;;;5014350;28;20030;-66
2021/12/28 00:12:40;;;;;;;21.45;14.77;;;8.10;99.90;;;;;;5030057;28;20037;-66
2021/12/28 00:15:30;;;;;;;20.63;14.27;;;8.10;99.90;;;;;;5014660;28;20430;-66
2021/12/28 00:18:01;;;;;;;24.63;14.98;;;8.10;99.90;;;;;;5014245;28;20025;-65
2021/12/28 00:20:32;;;;;;;19.50;14.77;;;8.20;99.90;;;;;;5012689;28;20074;-66
2021/12/28 00:22:59;;;;;;;19.90;14.95;;;8.20;99.90;;;;;;5013305;28;20041;-65
2021/12/28 00:25:26;;;;;;;17.63;13.20;;;8.20;99.90;;;;;;5014674;28;20113;-66
2021/12/28 00:27:52;;;;;;;19.40;14.13;;;8.20;99.90;;;;;;5015427;28;20464;-66
2021/12/28 00:30:18;;;;;;;19.25;14.63;;;8.20;99.90;;;;;;5012657;28;20088;-66
2021/12/28 00:32:47;;;;;;;22.08;14.23;;;8.20;99.90;;;;;;5013067;28;20026;-66
2021/12/28 00:35:12;;;;;;;20.85;13.52;;;8.20;99.90;;;;;;5013745;28;20061;-65
2021/12/28 00:37:38;;;;;;;21.50;13.60;;;8.20;99.90;;;;;;5029626;28;20080;-66
2021/12/28 00:40:05;;;;;;;19.20;13.43;;;8.20;99.90;;;;;;5014269;28;20546;-65
2021/12/28 00:42:31;;;;;;;22.25;14.13;;;8.20;99.90;;;;;;5012170;28;20071;-67
2021/12/28 00:44:57;;;;;;;19.88;13.30;;;8.30;99.90;;;;;;5014625;28;20077;-66
2021/12/28 00:47:23;;;;;;;17.80;11.27;;;8.30;99.90;;;;;;5011534;28;20450;-66
2021/12/28 00:49:48;;;;;;;15.55;11.52;;;8.30;99.90;;;;;;5013189;28;20120;-67
2021/12/28 00:52:14;;;;;;;23.83;13.30;;;8.30;99.90;;;;;;5013094;28;20464;-69
2021/12/28 00:54:40;;;;;;;20.10;13.10;;;8.30;99.90;;;;;;5014848;28;20030;-68
2021/12/28 00:57:06;;;;;;;20.67;12.15;;;8.40;99.90;;;;;;5014628;28;20029;-67
2021/12/28 00:59:32;;;;;;;18.10;11.65;;;8.30;99.90;;;;;;5013381;28;20037;-67
2021/12/28 01:01:58;;;;;;;19.63;12.00;;;8.40;99.90;;;;;;5013897;28;20034;-68
2021/12/28 01:04:24;;;;;;;21.48;12.05;;;8.40;99.90;;;;;;5013804;28;20464;-70
2021/12/28 01:06:50;;;;;;;19.25;12.57;;;8.50;99.90;;;;;;5014468;28;20033;-69
2021/12/28 01:09:16;;;;;;;19.73;12.95;;;8.50;99.90;;;;;;5013712;28;20045;-67
2021/12/28 01:11:42;;;;;;;19.27;13.60;;;8.40;99.90;;;;;;5012707;28;20392;-67
2021/12/28 01:14:08;;;;;;;22.23;14.10;;;8.40;99.90;;;;;;5013748;28;20026;-67
2021/12/28 01:16:34;;;;;;;16.38;12.35;;;8.30;99.90;;;;;;5011932;28;20026;-67
2021/12/28 01:19:00;;;;;;;25.45;14.95;;;8.30;99.90;;;;;;5014137;28;20533;-67
2021/12/28 01:21:26;;;;;;;18.13;11.85;;;8.40;99.90;;;;;;5013254;28;20034;-67
2021/12/28 01:23:52;;;;;;;20.70;12.75;;;8.40;99.90;;;;;;5013895;28;20120;-66
2021/12/28 01:26:18;;;;;;;17.35;12.93;;;8.40;99.90;;;;;;5012731;28;20105;-67
2021/12/28 01:28:43;;;;;;;23.40;13.93;;;8.30;99.90;;;;;;5013539;28;20456;-68
2021/12/28 01:31:10;;;;;;;20.98;13.50;;;8.20;99.90;;;;;;5013233;28;20489;-67
2021/12/28 01:33:36;;;;;;;24.73;14.48;;;8.20;99.90;;;;;;5013126;28;20117;-67
2021/12/28 01:36:02;;;;;;;20.88;13.10;;;8.10;99.90;;;;;;5013154;28;20112;-66
2021/12/28 01:38:27;;;;;;;19.67;13.35;;;8.10;99.90;;;;;;5013030;28;20049;-66
2021/12/28 01:40:53;;;;;;;21.45;14.75;;;8.20;99.90;;;;;;5011991;28;20483;-70
2021/12/28 01:43:22;;;;;;;18.27;12.70;;;8.20;99.90;;;;;;5012789;28;20026;-65
2021/12/28 01:45:57;;;;;;;22.88;12.63;;;8.20;99.90;;;;;;5013283;28;20024;-66
2021/12/28 01:48:30;;;;;;;17.88;12.10;;;8.30;99.90;;;;;;5012452;28;20029;-66
2021/12/28 01:51:10;;;;;;;17.23;11.98;;;8.20;99.90;;;;;;5013613;28;20030;-65
2021/12/28 01:53:36;;;;;;;21.73;13.10;;;8.10;99.90;;;;;;5012814;28;20030;-65
2021/12/28 01:56:06;;;;;;;20.83;13.02;;;8.20;99.90;;;;;;5013098;28;20076;-67
2021/12/28 01:58:33;;;;;;;15.15;11.43;;;8.20;99.90;;;;;;5010850;28;20026;-67
2021/12/28 02:00:59;;;;;;;16.33;11.23;;;8.20;99.90;;;;;;5011779;28;20022;-67
2021/12/28 02:03:26;;;;;;;15.60;11.65;;;8.20;99.90;;;;;;5012387;28;20064;-67
2021/12/28 02:05:53;;;;;;;17.42;12.02;;;8.20;99.90;;;;;;5012842;28;20499;-67
2021/12/28 02:08:19;;;;;;;18.88;11.60;;;8.20;99.90;;;;;;5012374;28;20026;-67
2021/12/28 02:10:48;;;;;;;21.67;13.48;;;8.30;99.90;;;;;;5013198;28;20084;-66
2021/12/28 02:13:18;;;;;;;18.70;12.27;;;8.30;99.90;;;;;;5012763;28;20018;-66
2021/12/28 02:15:44;;;;;;;19.70;12.82;;;8.20;99.90;;;;;;5012929;28;20029;-66
2021/12/28 02:18:12;;;;;;;16.52;11.15;;;8.20;99.90;;;;;;5011508;28;20364;-66
2021/12/28 02:20:38;;;;;;;19.77;12.13;;;8.30;99.90;;;;;;5010910;28;20037;-66
2021/12/28 02:23:04;;;;;;;18.25;12.68;;;8.30;99.90;;;;;;5013228;28;20060;-66
2021/12/28 02:25:33;;;;;;;17.48;12.10;;;8.30;99.90;;;;;;5012091;28;20045;-65
2021/12/28 02:28:00;;;;;;;18.38;12.20;;;8.30;99.90;;;;;;5012585;28;20511;-67
2021/12/28 02:30:26;;;;;;;17.00;11.75;;;8.40;99.90;;;;;;5014168;28;20050;-69
2021/12/28 02:32:52;;;;;;;16.98;11.82;;;8.30;99.90;;;;;;5014316;28;20066;-66
2021/12/28 02:35:22;;;;;;;19.63;12.20;;;8.30;99.90;;;;;;5012739;28;20089;-69
2021/12/28 02:37:48;;;;;;;19.90;11.68;;;8.40;99.90;;;;;;5013222;28;20034;-66
2021/12/28 02:40:17;;;;;;;18.15;12.75;;;8.30;99.90;;;;;;5013094;28;20034;-65
2021/12/28 02:42:44;;;;;;;18.33;11.70;;;8.40;99.90;;;;;;5012554;28;20105;-66
2021/12/28 02:45:14;;;;;;;18.13;11.68;;;8.40;99.90;;;;;;5012409;28;20399;-65
2021/12/28 02:47:43;;;;;;;19.90;12.43;;;8.40;99.90;;;;;;5011908;28;20034;-66
2021/12/28 02:50:16;;;;;;;17.10;12.05;;;8.40;99.90;;;;;;5011241;28;20530;-66
2021/12/28 02:52:42;;;;;;;16.02;11.95;;;8.30;99.90;;;;;;5011192;28;20027;-68
2021/12/28 02:55:11;;;;;;;20.70;11.95;;;8.30;99.90;;;;;;5012828;28;20093;-65
2021/12/28 02:57:44;;;;;;;16.27;11.43;;;8.30;99.90;;;;;;5011614;28;20030;-65
2021/12/28 03:00:10;;;;;;;19.60;10.95;;;8.30;99.90;;;;;;5012497;28;20500;-67
2021/12/28 03:02:36;;;;;;;19.23;12.02;;;8.30;99.90;;;;;;5011834;28;20467;-65
2021/12/28 03:05:01;;;;;;;16.17;10.00;;;8.20;99.90;;;;;;5012951;28;20026;-69
2021/12/28 03:07:30;;;;;;;19.35;10.57;;;8.20;99.90;;;;;;5012104;28;20029;-66
2021/12/28 03:09:55;;;;;;;20.83;10.35;;;8.10;99.90;;;;;;5012238;28;20096;-66
2021/12/28 03:12:21;;;;;;;15.02;9.30;;;8.10;99.90;;;;;;5014322;28;20475;-65
2021/12/28 03:14:48;;;;;;;17.05;9.98;;;8.10;99.90;;;;;;5016070;28;20048;-65
2021/12/28 03:17:14;;;;;;;13.15;9.82;;;8.10;99.90;;;;;;5014769;28;20062;-66
2021/12/28 03:19:40;;;;;;;14.27;9.27;;;8.00;99.90;;;;;;5015303;28;20135;-66
2021/12/28 03:22:05;;;;;;;20.15;8.95;;;8.10;99.90;;;;;;5016161;28;20026;-66
2021/12/28 03:24:31;;;;;;;13.48;8.85;;;8.10;99.90;;;;;;5013898;28;20399;-66
2021/12/28 03:26:57;;;;;;;17.42;8.18;;;8.20;99.90;;;;;;5013161;28;20033;-66
2021/12/28 03:29:23;;;;;;;18.00;7.82;;;8.20;99.90;;;;;;5014447;28;20069;-66
2021/12/28 03:31:49;;;;;;;15.77;8.85;;;8.10;99.90;;;;;;5015625;28;20073;-66
2021/12/28 03:34:15;;;;;;;24.52;9.93;;;8.20;99.90;;;;;;5015601;28;20029;-66
2021/12/28 03:36:41;;;;;;;16.35;7.43;;;8.10;99.90;;;;;;5014928;28;20036;-66
2021/12/28 03:39:07;;;;;;;17.48;7.18;;;8.10;99.90;;;;;;5015661;28;20069;-66
2021/12/28 03:41:34;;;;;;;13.07;6.60;;;8.20;99.90;;;;;;5013705;28;20137;-65
2021/12/28 03:44:01;;;;;;;11.02;6.25;;;8.20;99.90;;;;;;5015728;28;20041;-66
2021/12/28 03:46:29;;;;;;;11.70;6.15;;;8.20;99.90;;;;;;5016432;28;20030;-66
2021/12/28 03:48:55;;;;;;;13.35;6.68;;;8.20;99.90;;;;;;5017989;28;20029;-65
2021/12/28 03:51:21;;;;;;;14.85;6.03;;;8.20;99.90;;;;;;5016645;28;20113;-66
2021/12/28 03:53:47;;;;;;;19.05;5.70;;;8.30;99.90;;;;;;5016128;28;20041;-65
2021/12/28 03:56:13;;;;;;;13.77;5.40;;;8.30;99.90;;;;;;5015371;28;20099;-68
2021/12/28 03:58:42;;;;;;;11.98;4.80;;;8.40;99.90;;;;;;5014336;28;20108;-66
2021/12/28 04:01:11;;;;;;;17.25;4.80;;;8.30;99.90;;;;;;5015196;28;20026;-65
2021/12/28 04:03:37;;;;;;;13.25;5.22;;;8.40;99.90;;;;;;5013152;28;20426;-65
2021/12/28 04:06:08;;;;;;;15.75;5.00;;;8.40;99.90;;;;;;5014889;28;20029;-65
2021/12/28 04:08:34;;;;;;;17.40;5.18;;;8.40;99.90;;;;;;5014148;28;20109;-65
2021/12/28 04:11:25;;;;;;;11.80;5.28;;;8.40;99.90;;;;;;5014972;28;20422;-65
2021/12/28 04:13:53;;;;;;;11.30;4.45;;;8.40;99.90;;;;;;5014874;28;20022;-65
2021/12/28 04:16:20;;;;;;;12.98;3.72;;;8.40;99.90;;;;;;5014684;28;20026;-66
2021/12/28 04:18:46;;;;;;;17.25;4.38;;;8.40;99.90;;;;;;5014223;28;20024;-66
2021/12/28 04:21:12;;;;;;;15.55;3.90;;;8.50;99.90;;;;;;5013619;28;20026;-66
2021/12/28 04:23:38;;;;;;;14.35;3.75;;;8.50;99.90;;;;;;5014164;28;20088;-65
2021/12/28 04:26:04;;;;;;;18.67;4.60;;;8.50;99.90;;;;;;5014623;28;20026;-66
2021/12/28 04:28:30;;;;;;;13.82;5.20;;;8.40;99.90;;;;;;5013826;28;20105;-66
2021/12/28 04:30:56;;;;;;;11.48;3.50;;;8.40;99.90;;;;;;5014293;28;20049;-66
2021/12/28 04:33:22;;;;;;;13.00;4.53;;;8.40;99.90;;;;;;5015541;28;20075;-65
2021/12/28 04:35:49;;;;;;;17.58;3.97;;;8.50;99.90;;;;;;5013598;28;20029;-67
2021/12/28 04:38:15;;;;;;;13.23;3.40;;;8.50;99.90;;;;;;5014499;28;20026;-69
2021/12/28 04:40:40;;;;;;;14.25;3.17;;;8.40;99.90;;;;;;5013977;28;20037;-67
2021/12/28 04:43:07;;;;;;;28.58;4.07;;;8.50;99.90;;;;;;5014401;28;20018;-64
2021/12/28 04:45:36;;;;;;;19.52;4.90;;;8.50;99.90;;;;;;5013555;28;20526;-65
2021/12/28 04:48:03;;;;;;;10.63;3.22;;;8.50;99.90;;;;;;5014454;28;20026;-65
2021/12/28 04:50:29;;;;;;;17.05;3.70;;;8.50;99.90;;;;;;5013629;28;20048;-65
2021/12/28 04:52:57;;;;;;;15.68;4.50;;;8.50;99.90;;;;;;5012922;28;20120;-67
2021/12/28 04:55:23;;;;;;;18.83;4.25;;;8.50;99.90;;;;;;5013200;28;20036;-67
2021/12/28 04:57:49;;;;;;;13.00;3.90;;;8.50;99.90;;;;;;5014540;28;20402;-70
2021/12/28 05:00:19;;;;;;;17.10;3.50;;;8.50;99.90;;;;;;5014314;28;20038;-67
2021/12/28 05:02:45;;;;;;;16.55;3.67;;;8.50;99.90;;;;;;5012102;28;20026;-65
2021/12/28 05:05:12;;;;;;;21.33;5.60;;;8.50;99.90;;;;;;5014184;28;20061;-65
2021/12/28 05:07:38;;;;;;;18.00;3.35;;;8.60;99.90;;;;;;5013555;28;20065;-65
2021/12/28 05:10:05;;;;;;;14.40;3.67;;;8.60;99.90;;;;;;5012663;28;20025;-65
2021/12/28 05:12:30;;;;;;;17.80;3.92;;;8.60;99.90;;;;;;5013652;28;20033;-65
2021/12/28 05:14:59;;;;;;;11.38;3.20;;;8.60;99.90;;;;;;5013609;28;20026;-65
2021/12/28 05:17:28;;;;;;;11.88;3.45;;;8.50;99.90;;;;;;5013877;28;20022;-65
2021/12/28 05:19:55;;;;;;;20.65;3.72;;;8.60;99.90;;;;;;5013475;28;20038;-65
2021/12/28 05:22:20;;;;;;;12.98;3.03;;;8.60;99.90;;;;;;5013664;28;20034;-65
2021/12/28 05:24:46;;;;;;;19.55;4.97;;;8.60;99.90;;;;;;5013002;28;20029;-65
2021/12/28 05:27:12;;;;;;;9.55;2.50;;;8.60;99.90;;;;;;5013864;28;20043;-66
2021/12/28 05:29:37;;;;;;;15.65;4.80;;;8.60;99.90;;;;;;5013108;28;20057;-66
2021/12/28 05:32:03;;;;;;;10.90;2.92;;;8.70;99.90;;;;;;5012306;28;20037;-65
2021/12/28 05:34:29;;;;;;;18.70;3.70;;;8.80;99.90;;;;;;5012076;28;20029;-65
2021/12/28 05:36:55;;;;;;;13.02;2.97;;;8.80;99.90;;;;;;5013930;28;20088;-65
2021/12/28 05:39:20;;;;;;;16.02;3.53;;;8.80;99.90;;;;;;5014345;28;20069;-71
2021/12/28 05:41:48;;;;;;;14.20;3.00;;;8.70;99.90;;;;;;5013493;28;20200;-67
2021/12/28 05:44:16;;;;;;;8.52;2.97;;;8.70;99.90;;;;;;5013994;28;20022;-65
2021/12/28 05:46:42;;;;;;;14.43;3.53;;;8.60;99.90;;;;;;5013173;28;20422;-67
2021/12/28 05:49:07;;;;;;;15.65;3.33;;;8.60;99.90;;;;;;5012147;28;20034;-64
2021/12/28 05:51:33;;;;;;;22.13;4.85;;;8.60;99.90;;;;;;5011404;28;20033;-66
2021/12/28 05:53:58;;;;;;;10.23;3.22;;;8.60;99.90;;;;;;5013262;28;20044;-66
2021/12/28 05:56:24;;;;;;;20.55;3.70;;;8.60;99.90;;;;;;5012887;28;20033;-63
2021/12/28 05:58:51;;;;;;;13.35;3.47;;;8.50;99.90;;;;;;5011312;28;20030;-65
2021/12/28 06:01:17;;;;;;;14.20;3.75;;;8.50;99.90;;;;;;5013058;28;20033;-69
2021/12/28 06:03:42;;;;;;;10.00;3.17;;;8.50;99.90;;;;;;5012239;28;20025;-64
2021/12/28 06:06:08;;;;;;;11.50;3.72;;;8.40;99.90;;;;;;5011570;28;20032;-64
2021/12/28 06:08:34;;;;;;;12.48;3.65;;;8.50;99.90;;;;;;5010938;28;20030;-65
2021/12/28 06:11:02;;;;;;;11.93;4.68;;;8.40;99.90;;;;;;5013247;28;20037;-65
2021/12/28 06:13:28;;;;;;;11.07;3.63;;;8.50;99.90;;;;;;5011720;28;20062;-66
2021/12/28 06:15:54;;;;;;;8.77;3.38;;;8.40;99.90;;;;;;5012459;28;20443;-66
2021/12/28 06:18:20;;;;;;;7.15;2.53;;;8.40;99.90;;;;;;5011517;28;20124;-66
2021/12/28 06:20:45;;;;;;;12.60;3.53;;;8.30;99.90;;;;;;5010943;28;20057;-65
2021/12/28 06:23:12;;;;;;;13.88;3.50;;;8.30;99.90;;;;;;5012394;28;20464;-66
2021/12/28 06:25:38;;;;;;;11.45;4.20;;;8.30;99.90;;;;;;5011897;28;20061;-64
2021/12/28 06:28:04;;;;;;;11.20;2.92;;;8.50;99.90;;;;;;5011451;28;20030;-65
2021/12/28 06:30:30;;;;;;;12.50;2.97;;;8.40;99.90;;;;;;5010764;28;20054;-72
2021/12/28 06:32:56;;;;;;;10.18;3.17;;;8.40;99.90;;;;;;5012475;28;20503;-64
2021/12/28 06:35:22;;;;;;;6.97;2.55;;;8.40;99.90;;;;;;5012834;28;20022;-66
2021/12/28 06:37:47;;;;;;;11.55;3.33;;;8.40;99.90;;;;;;5012051;28;20026;-64
2021/12/28 06:40:13;;;;;;;10.32;2.63;;;8.30;99.90;;;;;;5011186;28;20033;-65
2021/12/28 06:42:40;;;;;;;10.48;2.30;;;8.30;99.90;;;;;;5010732;28;20383;-64
2021/12/28 06:45:06;;;;;;;7.22;2.95;;;8.30;99.90;;;;;;5011309;28;20054;-65
2021/12/28 06:47:33;;;;;;;12.30;3.10;;;8.30;99.90;;;;;;5013923;28;20383;-65
2021/12/28 06:49:58;;;;;;;8.85;2.22;;;8.20;99.90;;;;;;5015044;28;20057;-65
2021/12/28 06:52:24;;;;;;;9.18;2.92;;;8.30;99.90;;;;;;5015067;28;20030;-65
2021/12/28 06:54:49;;;;;;;14.18;2.83;;;8.30;99.90;;;;;;5015648;28;20045;-65
2021/12/28 06:57:15;;;;;;;7.65;2.20;;;8.30;99.90;;;;;;5015118;28;20025;-65
2021/12/28 06:59:43;;;;;;;9.13;3.65;;;8.30;99.90;;;;;;5014059;28;20037;-64
2021/12/28 07:02:14;;;;;;;15.23;2.60;;;8.20;99.90;;;;;;5016133;28;20621;-65
2021/12/28 07:04:40;;;;;;;10.10;2.47;;;8.20;99.90;;;;;;5016263;28;20037;-65
2021/12/28 07:07:06;;;;;;;11.25;2.58;;;8.20;99.90;;;;;;5016760;28;20574;-65
2021/12/28 07:09:33;;;;;;;11.40;2.85;;;8.20;99.90;;;;;;5016621;28;20030;-65
2021/12/28 07:11:59;;;;;;;10.93;2.70;;;8.20;99.90;;;;;;5015436;28;20030;-64
2021/12/28 07:14:24;;;;;;;12.35;2.90;;;8.20;99.90;;;;;;5016274;28;20033;-67
2021/12/28 07:16:50;;;;;;;11.90;2.50;;;8.10;99.90;;;;;;5015455;28;20033;-65
2021/12/28 07:19:16;;;;;;;7.28;2.03;;;8.10;99.90;;;;;;5017245;28;20033;-67
2021/12/28 07:21:42;;;;;;;11.00;2.63;;;8.10;99.90;;;;;;5014189;28;20030;-65
2021/12/28 07:24:09;;;;;;;7.28;3.25;;;8.10;99.90;;;;;;5014645;28;20030;-65
2021/12/28 07:26:36;;;;;;;9.98;3.00;;;8.10;99.90;;;;;;5013390;28;20030;-69
2021/12/28 07:29:03;;;;;;;6.75;1.77;;;8.20;99.90;;;;;;5015497;28;20050;-65
2021/12/28 07:31:31;;;;;;;6.88;2.00;;;8.20;99.90;;;;;;5015526;28;20357;-64
2021/12/28 07:33:57;;;;;;;8.98;2.78;;;8.10;99.90;;;;;;5013763;28;20081;-65
2021/12/28 07:36:23;;;;;;;11.55;2.80;;;8.10;99.90;;;;;;5015551;28;20034;-64
2021/12/28 07:38:49;;;;;;;8.75;2.33;;;8.10;99.90;;;;;;5014878;28;20056;-65
2021/12/28 07:41:15;;;;;;;10.55;2.00;;;8.10;99.90;;;;;;5014389;28;20444;-64
2021/12/28 07:43:40;;;;;;;7.40;2.85;;;7.80;99.90;;;;;;5015196;28;20452;-66
2021/12/28 07:46:06;;;;;;;9.52;2.25;;;8.10;99.90;;;;;;5015476;28;20037;-67
2021/12/28 07:48:32;;;;;;;9.35;2.25;;;8.10;99.90;;;;;;5015560;28;20464;-65
2021/12/28 07:50:58;;;;;;;11.38;2.03;;;8.10;99.90;;;;;;5014715;28;20121;-66
2021/12/28 07:53:23;;;;;;;4.65;1.92;;;8.00;99.90;;;;;;5013706;28;20030;-64
2021/12/28 07:55:49;;;;;;;10.02;2.05;;;8.10;99.90;;;;;;5013419;28;20034;-65
2021/12/28 07:58:15;;;;;;;7.93;2.00;;;8.10;99.90;;;;;;5013253;28;20026;-64
2021/12/28 08:00:41;;;;;;;13.63;3.10;;;8.10;99.90;;;;;;5014518;28;20034;-65
2021/12/28 08:03:07;;;;;;;9.48;2.47;;;8.20;99.90;;;;;;5015450;28;20439;-66
2021/12/28 08:05:35;;;;;;;9.75;2.33;;;8.10;99.90;;;;;;5015097;28;20065;-67
2021/12/28 08:08:01;;;;;;;11.30;3.35;;;8.10;99.90;;;;;;5015011;28;20113;-66
2021/12/28 08:10:27;;;;;;;9.90;2.72;;;8.20;99.90;;;;;;5013710;28;20026;-67
2021/12/28 08:12:54;;;;;;;8.02;3.30;;;8.20;99.90;;;;;;5014495;28;20361;-65
2021/12/28 08:15:23;;;;;;;4.63;2.17;;;8.10;99.90;;;;;;5013781;28;20040;-68
2021/12/28 08:17:49;;;;;;;18.42;4.43;;;8.20;99.90;;;;;;5013063;28;20037;-71
2021/12/28 08:20:16;;;;;;;8.45;3.25;;;8.20;99.90;;;;;;5014606;28;20056;-67
2021/12/28 08:22:43;;;;;;;10.90;2.47;;;8.20;99.90;;;;;;5012706;28;20033;-65
2021/12/28 08:25:11;;;;;;;11.55;3.42;;;8.10;99.90;;;;;;5014325;28;20037;-66
2021/12/28 08:27:37;;;;;;;6.43;2.45;;;8.20;99.90;;;;;;5014655;28;20154;-68
2021/12/28 08:30:04;;;;;;;10.25;2.30;;;8.10;99.90;;;;;;5013631;28;20084;-66
2021/12/28 08:32:30;;;;;;;10.20;2.78;;;8.10;99.90;;;;;;5013336;28;20120;-64
2021/12/28 08:34:56;;;;;;;8.98;2.95;;;8.10;99.90;;;;;;5013603;28;20103;-66
2021/12/28 08:37:22;;;;;;;7.63;2.75;;;8.00;99.90;;;;;;5003394;28;20030;-65
2021/12/28 08:39:47;;;;;;;13.70;4.25;;;8.00;99.90;;;;;;5009239;28;20030;-69
2021/12/28 08:42:13;;;;;;;7.40;2.45;;;8.10;99.90;;;;;;5009315;28;20522;-66
2021/12/28 08:44:39;;;;;;;6.28;2.17;;;8.20;99.90;;;;;;5009825;28;20030;-64
2021/12/28 08:47:04;;;;;;;9.88;2.30;;;8.10;99.90;;;;;;5010496;28;20030;-65
2021/12/28 08:49:30;;;;;;;7.10;2.50;;;8.10;99.90;;;;;;4994786;28;20452;-65
2021/12/28 08:51:56;;;;;;;5.97;2.20;;;8.10;99.90;;;;;;5009069;28;20038;-65
2021/12/28 08:54:21;;;;;;;5.00;2.25;;;8.20;99.90;;;;;;5011050;28;20027;-65
2021/12/28 08:56:50;;;;;;;10.68;2.95;;;8.10;99.90;;;;;;4997232;28;20110;-68
2021/12/28 08:59:16;;;;;;;6.22;2.08;;;8.20;99.90;;;;;;4998410;28;20038;-66
2021/12/28 09:01:42;;;;;;;4.05;2.13;;;8.10;99.90;;;;;;5009749;28;20109;-65
2021/12/28 09:04:08;;;;;;;2.80;1.52;;;8.20;99.90;;;;;;5013712;28;20552;-65
2021/12/28 09:06:34;;;;;;;4.30;1.65;;;8.20;99.90;;;;;;5011954;28;20052;-65
2021/12/28 09:08:59;;;;;;;3.72;1.42;;;8.10;99.90;;;;;;5011936;28;20380;-65
2021/12/28 09:11:25;;;;;;;5.57;1.90;;;8.20;99.90;;;;;;5011449;28;20110;-66
2021/12/28 09:13:51;;;;;;;4.75;1.33;;;8.20;99.90;;;;;;5013955;28;20022;-67
2021/12/28 09:16:17;;;;;;;5.30;1.42;;;8.20;99.90;;;;;;5013593;28;20033;-65
2021/12/28 09:18:43;;;;;;;4.53;1.45;;;8.20;99.90;;;;;;5011476;28;20021;-66
2021/12/28 09:21:09;;;;;;;3.20;1.88;;;8.20;99.90;;;;;;5011336;28;20041;-66
2021/12/28 09:23:35;;;;;;;4.15;1.67;;;8.20;99.90;;;;;;5010000;28;20446;-66
2021/12/28 09:26:01;;;;;;;4.20;1.60;;;8.20;99.90;;;;;;5012903;28;20040;-64
2021/12/28 09:28:27;;;;;;;5.53;2.13;;;8.20;99.90;;;;;;5012166;28;20456;-66
2021/12/28 09:30:52;;;;;;;6.32;1.80;;;8.30;99.90;;;;;;5012124;28;20061;-65
2021/12/28 09:33:19;;;;;;;3.88;1.70;;;8.30;99.90;;;;;;5012009;28;20033;-64
2021/12/28 09:35:45;;;;;;;3.30;1.63;;;8.40;99.90;;;;;;5010452;28;20378;-67
2021/12/28 09:38:11;;;;;;;1.98;1.30;;;8.30;99.90;;;;;;5005315;28;20022;-67
2021/12/28 09:40:37;;;;;;;3.38;1.77;;;8.30;99.90;;;;;;5011593;28;20271;-64
2021/12/28 09:43:08;;;;;;;3.95;1.90;;;8.40;99.90;;;;;;5010503;28;20026;-66
2021/12/28 09:45:34;;;;;;;6.28;2.35;;;8.50;99.90;;;;;;5013235;28;20471;-65
2021/12/28 09:48:01;;;;;;;5.15;1.70;;;8.50;99.90;;;;;;5011057;28;20041;-68
2021/12/28 09:50:27;;;;;;;3.92;1.70;;;8.60;99.90;;;;;;5010611;28;20026;-67
2021/12/28 09:52:53;;;;;;;3.60;1.90;;;8.80;99.90;;;;;;5009128;28;20472;-66
2021/12/28 09:55:22;;;;;;;2.95;1.73;;;8.80;99.90;;;;;;5012610;28;20081;-64
2021/12/28 09:57:49;;;;;;;2.97;1.60;;;8.90;99.90;;;;;;5011233;28;20080;-64
2021/12/28 10:00:16;;;;;;;5.40;1.98;;;8.90;99.90;;;;;;5011428;28;20037;-66
2021/12/28 10:02:43;;;;;;;5.65;1.95;;;9.00;99.90;;;;;;5011102;28;20042;-68
2021/12/28 10:05:13;;;;;;;1.95;1.80;;;9.20;99.90;;;;;;5013014;28;20026;-69
2021/12/28 10:07:48;;;;;;;4.95;2.00;;;9.20;99.90;;;;;;5011402;28;20132;-65
2021/12/28 10:10:14;;;;;;;2.33;1.80;;;9.20;99.90;;;;;;5005974;28;20030;-65
2021/12/28 10:12:44;;;;;;;2.80;1.98;;;9.20;99.90;;;;;;5005194;28;20538;-67
2021/12/28 10:15:14;;;;;;;3.97;1.90;;;9.30;99.90;;;;;;5011280;28;20034;-65
2021/12/28 10:17:43;;;;;;;3.38;2.03;;;9.30;99.90;;;;;;5008610;28;20032;-65
2021/12/28 10:20:15;;;;;;;2.30;2.10;;;9.30;99.90;;;;;;5011259;28;20072;-66
2021/12/28 10:22:48;;;;;;;8.15;2.33;;;9.30;99.90;;;;;;5015127;28;20395;-68
2021/12/28 10:25:20;;;;;;;2.58;2.28;;;9.30;99.90;;;;;;5011153;28;20039;-65
2021/12/28 10:27:52;;;;;;;4.20;2.65;;;9.30;99.90;;;;;;5012393;28;20113;-66
2021/12/28 10:30:23;;;;;;;3.42;2.70;;;9.30;99.90;;;;;;5010398;28;20050;-65
2021/12/28 10:32:51;;;;;;;3.40;2.80;;;9.40;99.90;;;;;;5007571;28;20030;-67
2021/12/28 10:35:24;;;;;;;3.63;2.75;;;9.40;99.90;;;;;;5007695;28;20060;-65
2021/12/28 10:37:58;;;;;;;6.30;2.40;;;9.40;99.90;;;;;;5011616;28;20069;-67
2021/12/28 10:40:37;;;;;;;4.55;2.53;;;9.40;99.90;;;;;;5008926;28;20034;-68
2021/12/28 10:43:07;;;;;;;2.63;2.42;;;9.40;99.90;;;;;;5007789;28;20378;-66
2021/12/28 10:45:37;;;;;;;4.43;2.58;;;9.50;99.90;;;;;;5007561;28;20026;-65
2021/12/28 10:48:07;;;;;;;3.63;3.30;;;9.50;99.90;;;;;;5009454;28;20057;-66
2021/12/28 10:50:45;;;;;;;4.07;3.03;;;9.40;99.90;;;;;;5012072;28;20026;-66
2021/12/28 10:53:24;;;;;;;3.15;2.90;;;9.50;99.90;;;;;;5019097;28;20117;-66
2021/12/28 10:55:57;;;;;;;3.22;2.90;;;9.50;99.90;;;;;;5009287;28;20483;-67
2021/12/28 10:58:27;;;;;;;4.30;2.90;;;9.50;99.90;;;;;;5009378;28;20030;-66
2021/12/28 11:00:53;;;;;;;3.88;3.40;;;9.50;99.90;;;;;;5006593;28;20080;-66
2021/12/28 11:03:26;;;;;;;5.25;3.20;;;9.60;99.90;;;;;;5007299;28;20025;-67
2021/12/28 11:05:54;;;;;;;4.65;3.22;;;9.50;99.90;;;;;;5007354;28;20514;-66
2021/12/28 11:08:22;;;;;;;5.45;3.00;;;9.60;99.90;;;;;;5009365;28;20026;-68
2021/12/28 11:10:52;;;;;;;2.78;2.50;;;9.60;99.90;;;;;;5006557;28;20053;-64
2021/12/28 11:13:24;;;;;;;4.03;2.75;;;9.60;99.90;;;;;;5009292;28;20080;-67
2021/12/28 11:15:50;;;;;;;5.35;3.10;;;9.60;99.90;;;;;;5005757;28;20484;-65
2021/12/28 11:18:22;;;;;;;4.88;3.70;;;9.80;99.90;;;;;;5006156;28;20030;-65
2021/12/28 11:20:50;;;;;;;3.95;2.83;;;9.80;99.90;;;;;;5005175;28;20504;-67
2021/12/28 11:23:25;;;;;;;3.63;3.15;;;9.90;99.90;;;;;;5003290;28;20113;-66
2021/12/28 11:26:10;;;;;;;7.95;3.30;;;10.00;99.90;;;;;;5006997;28;20507;-66
2021/12/28 11:28:37;;;;;;;5.32;4.82;;;10.10;99.90;;;;;;5004786;28;20025;-64
2021/12/28 11:31:14;;;;;;;6.00;4.57;;;11.20;99.90;;;;;;5005425;28;20165;-63
2021/12/28 11:33:47;;;;;;;5.88;4.72;;;11.40;99.90;;;;;;5007034;28;20117;-62
2021/12/28 11:36:13;;;;;;;3.97;2.97;;;11.20;99.90;;;;;;5007581;28;20038;-62
2021/12/28 11:38:39;;;;;;;3.83;2.40;;;11.20;99.90;;;;;;5013880;28;20018;-65
2021/12/28 11:41:06;;;;;;;3.63;2.70;;;10.70;99.90;;;;;;5013653;28;20041;-79
2021/12/28 11:43:37;;;;;;;4.63;3.20;;;10.50;99.90;;;;;;5015575;28;20025;-66
2021/12/28 11:46:06;;;;;;;11.07;3.28;;;10.70;99.90;;;;;;5010569;28;20093;-66
2021/12/28 11:48:33;;;;;;;2.67;2.10;;;10.40;99.90;;;;;;5014968;28;20044;-67
2021/12/28 11:50:59;;;;;;;3.63;2.42;;;10.30;99.90;;;;;;5013380;28;20061;-66
2021/12/28 11:53:27;;;;;;;3.50;2.28;;;10.30;99.90;;;;;;5012918;28;20060;-66
2021/12/28 11:55:58;;;;;;;5.28;3.22;;;10.20;99.90;;;;;;5011276;28;20184;-69
2021/12/28 11:58:50;;;;;;;5.32;3.03;;;10.20;99.90;;;;;;5014034;28;20030;-67
2021/12/28 12:01:34;;;;;;;;;;;10.10;99.90;;;;;;5008870;28;20042;-66
2021/12/28 12:04:00;;;;;;;4.07;3.03;;;10.10;99.90;;;;;;5010031;28;19920;-65
2021/12/28 12:07:06;;;;;;;4.10;2.85;;;10.10;99.90;;;;;;5009156;28;20018;-72
2021/12/28 12:09:33;;;;;;;6.10;4.00;;;10.10;99.90;;;;;;5014483;28;20033;-65
2021/12/28 12:12:04;;;;;;;3.75;3.05;;;10.00;99.90;;;;;;5013278;28;20164;-67
2021/12/28 12:15:08;;;;;;;4.68;4.28;;;10.10;99.90;;;;;;5013461;28;20487;-65
2021/12/28 12:17:35;;;;;;;5.20;3.03;;;10.20;99.90;;;;;;4990960;28;20414;-66
2021/12/28 12:20:06;;;;;;;4.30;2.60;;;10.20;99.90;;;;;;5012007;28;20041;-67
2021/12/28 12:22:32;;;;;;;;;;;10.20;99.90;;;;;;5010154;28;20041;-67
2021/12/28 12:24:59;;;;;;;3.60;3.03;;;10.20;99.90;;;;;;5013442;28;19909;-66
2021/12/28 12:27:48;;;;;;;5.20;4.55;;;10.20;99.90;;;;;;5014295;28;20045;-67
2021/12/28 12:30:17;;;;;;;6.25;3.55;;;10.20;99.90;;;;;;5014083;28;20049;-66
2021/12/28 12:33:06;;;;;;;4.18;3.78;;;10.30;99.90;;;;;;5014010;28;20089;-66
2021/12/28 12:35:47;;;;;;;5.68;3.92;;;10.20;99.90;;;;;;5012181;28;20026;-66
2021/12/28 12:38:16;;;;;;;4.78;4.22;;;10.20;99.90;;;;;;5014273;28;20387;-66
2021/12/28 12:41:07;;;;;;;4.85;4.45;;;10.20;99.90;;;;;;5014091;28;20046;-68
2021/12/28 12:43:36;;;;;;;6.78;4.05;;;10.20;99.90;;;;;;4984849;28;20037;-65
2021/12/28 12:46:05;;;;;;;5.00;4.47;;;10.20;99.90;;;;;;5011610;28;20475;-67
2021/12/28 12:48:36;;;;;;;5.50;4.22;;;10.30;99.90;;;;;;5013240;28;20055;-67
2021/12/28 12:51:20;;;;;;;5.10;3.92;;;10.30;99.90;;;;;;5007121;28;20040;-67